sensor_id;sensor_type;location;lat;lon;timestamp;P1;durP1;ratioP1;P2;durP2;ratioP2
9536;SDS011;4807;48.024;11.726;2023-07-02T00:00:16;2.87;;;1.97;;
9536;SDS011;4807;48.024;11.726;2023-07-02T00:03:26;2.00;;;1.90;;
9536;SDS011;4807;48.024;11.726;2023-07-02T00:06:34;1.80;;;1.70;;
9536;SDS011;4807;48.024;11.726;2023-07-02T00:09:46;2.60;;;1.63;;
9536;SDS011;4807;48.024;11.726;2023-07-02T00:12:55;2.13;;;1.60;;
9536;SDS011;4807;48.024;11.726;2023-07-02T00:16:05;3.53;;;1.93;;
9536;SDS011;4807;48.024;11.726;2023-07-02T00:19:14;2.83;;;1.93;;
9536;SDS011;4807;48.024;11.726;2023-07-02T00:22:25;1.60;;;1.50;;
9536;SDS011;4807;48.024;11.726;2023-07-02T00:25:34;2.13;;;1.63;;
9536;SDS011;4807;48.024;11.726;2023-07-02T00:28:42;2.10;;;1.90;;
9536;SDS011;4807;48.024;11.726;2023-07-02T00:31:52;1.73;;;1.40;;
9536;SDS011;4807;48.024;11.726;2023-07-02T00:35:02;1.93;;;1.80;;
9536;SDS011;4807;48.024;11.726;2023-07-02T00:38:14;1.90;;;1.80;;
9536;SDS011;4807;48.024;11.726;2023-07-02T00:41:23;1.93;;;1.80;;
9536;SDS011;4807;48.024;11.726;2023-07-02T00:44:31;2.17;;;1.70;;
9536;SDS011;4807;48.024;11.726;2023-07-02T00:47:42;2.60;;;1.90;;
9536;SDS011;4807;48.024;11.726;2023-07-02T00:50:51;1.70;;;1.60;;
9536;SDS011;4807;48.024;11.726;2023-07-02T00:54:00;1.50;;;1.40;;
9536;SDS011;4807;48.024;11.726;2023-07-02T00:57:09;3.27;;;1.80;;
9536;SDS011;4807;48.024;11.726;2023-07-02T01:00:18;1.67;;;1.57;;
9536;SDS011;4807;48.024;11.726;2023-07-02T01:03:29;1.67;;;1.50;;
9536;SDS011;4807;48.024;11.726;2023-07-02T01:06:39;1.60;;;1.50;;
9536;SDS011;4807;48.024;11.726;2023-07-02T01:09:48;1.30;;;1.10;;
9536;SDS011;4807;48.024;11.726;2023-07-02T01:12:57;1.60;;;1.50;;
9536;SDS011;4807;48.024;11.726;2023-07-02T01:16:07;3.17;;;1.70;;
9536;SDS011;4807;48.024;11.726;2023-07-02T01:19:19;1.63;;;1.53;;
9536;SDS011;4807;48.024;11.726;2023-07-02T01:22:34;1.77;;;1.67;;
9536;SDS011;4807;48.024;11.726;2023-07-02T01:25:43;1.40;;;1.30;;
9536;SDS011;4807;48.024;11.726;2023-07-02T01:28:51;2.20;;;1.33;;
9536;SDS011;4807;48.024;11.726;2023-07-02T01:32:00;1.23;;;1.13;;
9536;SDS011;4807;48.024;11.726;2023-07-02T01:35:09;1.63;;;1.30;;
9536;SDS011;4807;48.024;11.726;2023-07-02T01:38:19;1.17;;;0.93;;
9536;SDS011;4807;48.024;11.726;2023-07-02T01:41:28;1.60;;;0.70;;
9536;SDS011;4807;48.024;11.726;2023-07-02T01:44:37;1.10;;;1.00;;
9536;SDS011;4807;48.024;11.726;2023-07-02T01:47:46;0.77;;;0.70;;
9536;SDS011;4807;48.024;11.726;2023-07-02T01:50:55;0.90;;;0.90;;
9536;SDS011;4807;48.024;11.726;2023-07-02T01:54:05;1.93;;;0.70;;
9536;SDS011;4807;48.024;11.726;2023-07-02T01:57:14;0.70;;;0.70;;
9536;SDS011;4807;48.024;11.726;2023-07-02T02:00:23;0.77;;;0.77;;
9536;SDS011;4807;48.024;11.726;2023-07-02T02:03:34;0.97;;;0.80;;
9536;SDS011;4807;48.024;11.726;2023-07-02T02:06:43;1.50;;;0.80;;
9536;SDS011;4807;48.024;11.726;2023-07-02T02:09:53;0.70;;;0.70;;
9536;SDS011;4807;48.024;11.726;2023-07-02T02:13:03;0.80;;;0.80;;
9536;SDS011;4807;48.024;11.726;2023-07-02T02:16:11;0.87;;;0.87;;
9536;SDS011;4807;48.024;11.726;2023-07-02T02:19:20;2.10;;;0.73;;
9536;SDS011;4807;48.024;11.726;2023-07-02T02:22:28;1.77;;;1.00;;
9536;SDS011;4807;48.024;11.726;2023-07-02T02:25:38;1.20;;;1.10;;
9536;SDS011;4807;48.024;11.726;2023-07-02T02:28:47;1.00;;;1.00;;
9536;SDS011;4807;48.024;11.726;2023-07-02T02:31:56;0.93;;;0.80;;
9536;SDS011;4807;48.024;11.726;2023-07-02T02:35:05;2.40;;;0.93;;
9536;SDS011;4807;48.024;11.726;2023-07-02T02:38:16;1.17;;;0.90;;
9536;SDS011;4807;48.024;11.726;2023-07-02T02:41:26;1.93;;;1.00;;
9536;SDS011;4807;48.024;11.726;2023-07-02T02:44:35;0.90;;;0.90;;
9536;SDS011;4807;48.024;11.726;2023-07-02T02:47:45;1.03;;;0.90;;
9536;SDS011;4807;48.024;11.726;2023-07-02T02:50:54;1.00;;;0.90;;
9536;SDS011;4807;48.024;11.726;2023-07-02T02:54:02;1.47;;;1.03;;
9536;SDS011;4807;48.024;11.726;2023-07-02T02:57:12;0.80;;;0.80;;
9536;SDS011;4807;48.024;11.726;2023-07-02T03:00:21;1.57;;;0.80;;
9536;SDS011;4807;48.024;11.726;2023-07-02T03:03:30;1.13;;;0.80;;
9536;SDS011;4807;48.024;11.726;2023-07-02T03:06:40;0.90;;;0.87;;
9536;SDS011;4807;48.024;11.726;2023-07-02T03:09:49;1.27;;;1.17;;
9536;SDS011;4807;48.024;11.726;2023-07-02T03:12:59;0.90;;;0.90;;
9536;SDS011;4807;48.024;11.726;2023-07-02T03:16:07;1.30;;;0.90;;
9536;SDS011;4807;48.024;11.726;2023-07-02T03:19:16;1.47;;;1.00;;
9536;SDS011;4807;48.024;11.726;2023-07-02T03:22:25;1.00;;;1.00;;
9536;SDS011;4807;48.024;11.726;2023-07-02T03:25:34;2.50;;;1.10;;
9536;SDS011;4807;48.024;11.726;2023-07-02T03:28:44;0.97;;;0.97;;
9536;SDS011;4807;48.024;11.726;2023-07-02T03:31:52;1.20;;;1.10;;
9536;SDS011;4807;48.024;11.726;2023-07-02T03:35:01;1.67;;;0.90;;
9536;SDS011;4807;48.024;11.726;2023-07-02T03:38:10;1.10;;;0.83;;
9536;SDS011;4807;48.024;11.726;2023-07-02T03:41:18;1.10;;;1.00;;
9536;SDS011;4807;48.024;11.726;2023-07-02T03:44:28;1.50;;;1.40;;
9536;SDS011;4807;48.024;11.726;2023-07-02T03:47:36;2.40;;;1.50;;
9536;SDS011;4807;48.024;11.726;2023-07-02T03:50:45;1.53;;;1.40;;
9536;SDS011;4807;48.024;11.726;2023-07-02T03:53:54;2.63;;;1.50;;
9536;SDS011;4807;48.024;11.726;2023-07-02T03:57:03;2.57;;;1.63;;
9536;SDS011;4807;48.024;11.726;2023-07-02T04:00:14;1.93;;;1.60;;
9536;SDS011;4807;48.024;11.726;2023-07-02T04:03:23;2.77;;;1.67;;
9536;SDS011;4807;48.024;11.726;2023-07-02T04:06:32;2.97;;;2.20;;
9536;SDS011;4807;48.024;11.726;2023-07-02T04:09:41;3.00;;;2.00;;
9536;SDS011;4807;48.024;11.726;2023-07-02T04:12:50;2.67;;;2.20;;
9536;SDS011;4807;48.024;11.726;2023-07-02T04:16:00;3.83;;;2.40;;
9536;SDS011;4807;48.024;11.726;2023-07-02T04:19:09;3.03;;;2.13;;
9536;SDS011;4807;48.024;11.726;2023-07-02T04:22:18;3.37;;;2.23;;
9536;SDS011;4807;48.024;11.726;2023-07-02T04:25:27;3.20;;;2.30;;
9536;SDS011;4807;48.024;11.726;2023-07-02T04:28:55;2.70;;;2.20;;
9536;SDS011;4807;48.024;11.726;2023-07-02T04:32:07;3.10;;;2.60;;
9536;SDS011;4807;48.024;11.726;2023-07-02T04:35:16;5.37;;;2.30;;
9536;SDS011;4807;48.024;11.726;2023-07-02T04:38:25;4.30;;;2.33;;
9536;SDS011;4807;48.024;11.726;2023-07-02T04:41:34;2.20;;;2.00;;
9536;SDS011;4807;48.024;11.726;2023-07-02T04:44:43;2.90;;;2.37;;
9536;SDS011;4807;48.024;11.726;2023-07-02T04:47:53;3.00;;;2.23;;
9536;SDS011;4807;48.024;11.726;2023-07-02T04:51:02;2.37;;;1.83;;
9536;SDS011;4807;48.024;11.726;2023-07-02T04:54:11;2.20;;;1.70;;
9536;SDS011;4807;48.024;11.726;2023-07-02T04:57:20;4.60;;;2.23;;
9536;SDS011;4807;48.024;11.726;2023-07-02T05:00:29;2.20;;;1.63;;
9536;SDS011;4807;48.024;11.726;2023-07-02T05:03:40;2.73;;;1.90;;
9536;SDS011;4807;48.024;11.726;2023-07-02T05:06:49;3.67;;;2.03;;
9536;SDS011;4807;48.024;11.726;2023-07-02T05:09:58;2.47;;;1.87;;
9536;SDS011;4807;48.024;11.726;2023-07-02T05:13:06;1.90;;;1.63;;
9536;SDS011;4807;48.024;11.726;2023-07-02T05:16:15;3.57;;;1.80;;
9536;SDS011;4807;48.024;11.726;2023-07-02T05:19:25;2.10;;;1.90;;
9536;SDS011;4807;48.024;11.726;2023-07-02T05:22:33;2.00;;;1.63;;
9536;SDS011;4807;48.024;11.726;2023-07-02T05:25:42;2.47;;;1.63;;
9536;SDS011;4807;48.024;11.726;2023-07-02T05:28:52;2.60;;;1.60;;
9536;SDS011;4807;48.024;11.726;2023-07-02T05:32:01;3.40;;;1.50;;
9536;SDS011;4807;48.024;11.726;2023-07-02T05:35:12;3.07;;;1.77;;
9536;SDS011;4807;48.024;11.726;2023-07-02T05:38:21;2.77;;;1.60;;
9536;SDS011;4807;48.024;11.726;2023-07-02T05:41:30;2.40;;;1.80;;
9536;SDS011;4807;48.024;11.726;2023-07-02T05:44:39;2.20;;;2.00;;
9536;SDS011;4807;48.024;11.726;2023-07-02T05:47:47;1.83;;;1.73;;
9536;SDS011;4807;48.024;11.726;2023-07-02T05:50:57;1.87;;;1.77;;
9536;SDS011;4807;48.024;11.726;2023-07-02T05:54:06;4.07;;;1.67;;
9536;SDS011;4807;48.024;11.726;2023-07-02T05:57:15;2.00;;;1.60;;
9536;SDS011;4807;48.024;11.726;2023-07-02T06:00:23;1.83;;;1.73;;
9536;SDS011;4807;48.024;11.726;2023-07-02T06:03:32;4.37;;;2.20;;
9536;SDS011;4807;48.024;11.726;2023-07-02T06:06:43;2.50;;;1.70;;
9536;SDS011;4807;48.024;11.726;2023-07-02T06:09:51;1.97;;;1.77;;
9536;SDS011;4807;48.024;11.726;2023-07-02T06:13:00;4.83;;;1.67;;
9536;SDS011;4807;48.024;11.726;2023-07-02T06:16:08;2.83;;;1.90;;
9536;SDS011;4807;48.024;11.726;2023-07-02T06:19:17;2.27;;;2.07;;
9536;SDS011;4807;48.024;11.726;2023-07-02T06:22:27;2.83;;;2.03;;
9536;SDS011;4807;48.024;11.726;2023-07-02T06:25:36;1.83;;;1.60;;
9536;SDS011;4807;48.024;11.726;2023-07-02T06:28:44;2.80;;;1.80;;
9536;SDS011;4807;48.024;11.726;2023-07-02T06:31:53;3.40;;;1.60;;
9536;SDS011;4807;48.024;11.726;2023-07-02T06:35:02;2.37;;;1.53;;
9536;SDS011;4807;48.024;11.726;2023-07-02T06:38:13;4.43;;;2.20;;
9536;SDS011;4807;48.024;11.726;2023-07-02T06:41:25;2.17;;;1.97;;
9536;SDS011;4807;48.024;11.726;2023-07-02T06:44:34;2.07;;;1.77;;
9536;SDS011;4807;48.024;11.726;2023-07-02T06:47:42;1.63;;;1.50;;
9536;SDS011;4807;48.024;11.726;2023-07-02T06:50:51;2.17;;;1.80;;
9536;SDS011;4807;48.024;11.726;2023-07-02T06:54:01;2.47;;;1.47;;
9536;SDS011;4807;48.024;11.726;2023-07-02T06:57:10;1.83;;;1.73;;
9536;SDS011;4807;48.024;11.726;2023-07-02T07:00:20;1.73;;;1.63;;
9536;SDS011;4807;48.024;11.726;2023-07-02T07:03:28;1.90;;;1.80;;
9536;SDS011;4807;48.024;11.726;2023-07-02T07:06:37;4.20;;;2.00;;
9536;SDS011;4807;48.024;11.726;2023-07-02T07:09:47;1.90;;;1.80;;
9536;SDS011;4807;48.024;11.726;2023-07-02T07:12:56;3.03;;;2.50;;
9536;SDS011;4807;48.024;11.726;2023-07-02T07:16:04;3.70;;;2.60;;
9536;SDS011;4807;48.024;11.726;2023-07-02T07:19:13;3.27;;;2.47;;
9536;SDS011;4807;48.024;11.726;2023-07-02T07:22:22;3.03;;;2.40;;
9536;SDS011;4807;48.024;11.726;2023-07-02T07:25:32;3.97;;;2.23;;
9536;SDS011;4807;48.024;11.726;2023-07-02T07:28:40;3.77;;;2.40;;
9536;SDS011;4807;48.024;11.726;2023-07-02T07:31:49;3.67;;;2.17;;
9536;SDS011;4807;48.024;11.726;2023-07-02T07:34:58;3.70;;;2.60;;
9536;SDS011;4807;48.024;11.726;2023-07-02T07:38:06;2.73;;;2.20;;
9536;SDS011;4807;48.024;11.726;2023-07-02T07:41:17;2.57;;;2.37;;
9536;SDS011;4807;48.024;11.726;2023-07-02T07:44:25;4.03;;;2.63;;
9536;SDS011;4807;48.024;11.726;2023-07-02T07:47:35;2.50;;;2.30;;
9536;SDS011;4807;48.024;11.726;2023-07-02T07:50:44;2.93;;;2.60;;
9536;SDS011;4807;48.024;11.726;2023-07-02T07:53:53;3.23;;;2.40;;
9536;SDS011;4807;48.024;11.726;2023-07-02T07:57:04;2.67;;;2.47;;
9536;SDS011;4807;48.024;11.726;2023-07-02T08:00:14;3.03;;;2.70;;
9536;SDS011;4807;48.024;11.726;2023-07-02T08:03:24;3.57;;;3.23;;
9536;SDS011;4807;48.024;11.726;2023-07-02T08:06:33;4.03;;;2.87;;
9536;SDS011;4807;48.024;11.726;2023-07-02T08:09:41;4.10;;;3.13;;
9536;SDS011;4807;48.024;11.726;2023-07-02T08:12:52;2.53;;;2.33;;
9536;SDS011;4807;48.024;11.726;2023-07-02T08:16:01;2.20;;;1.90;;
9536;SDS011;4807;48.024;11.726;2023-07-02T08:19:10;4.13;;;2.70;;
9536;SDS011;4807;48.024;11.726;2023-07-02T08:22:19;2.23;;;2.07;;
9536;SDS011;4807;48.024;11.726;2023-07-02T08:25:28;3.37;;;2.57;;
9536;SDS011;4807;48.024;11.726;2023-07-02T08:28:38;2.83;;;2.63;;
9536;SDS011;4807;48.024;11.726;2023-07-02T08:31:47;3.13;;;2.77;;
9536;SDS011;4807;48.024;11.726;2023-07-02T08:34:56;2.37;;;2.13;;
9536;SDS011;4807;48.024;11.726;2023-07-02T08:38:05;1.80;;;1.70;;
9536;SDS011;4807;48.024;11.726;2023-07-02T08:41:15;1.93;;;1.83;;
9536;SDS011;4807;48.024;11.726;2023-07-02T08:44:28;1.97;;;1.60;;
9536;SDS011;4807;48.024;11.726;2023-07-02T08:47:36;2.10;;;1.60;;
9536;SDS011;4807;48.024;11.726;2023-07-02T08:50:45;1.50;;;1.40;;
9536;SDS011;4807;48.024;11.726;2023-07-02T08:53:56;1.10;;;1.10;;
9536;SDS011;4807;48.024;11.726;2023-07-02T08:57:05;1.30;;;1.20;;
9536;SDS011;4807;48.024;11.726;2023-07-02T09:00:16;1.93;;;1.53;;
9536;SDS011;4807;48.024;11.726;2023-07-02T09:03:25;1.30;;;1.20;;
9536;SDS011;4807;48.024;11.726;2023-07-02T09:06:33;1.30;;;1.20;;
9536;SDS011;4807;48.024;11.726;2023-07-02T09:09:46;1.17;;;1.07;;
9536;SDS011;4807;48.024;11.726;2023-07-02T09:13:05;2.20;;;1.17;;
9536;SDS011;4807;48.024;11.726;2023-07-02T09:16:24;1.20;;;1.10;;
9536;SDS011;4807;48.024;11.726;2023-07-02T09:19:35;1.20;;;1.10;;
9536;SDS011;4807;48.024;11.726;2023-07-02T09:22:55;1.00;;;0.90;;
9536;SDS011;4807;48.024;11.726;2023-07-02T09:26:04;2.03;;;1.30;;
9536;SDS011;4807;48.024;11.726;2023-07-02T09:29:13;1.23;;;1.07;;
9536;SDS011;4807;48.024;11.726;2023-07-02T09:32:25;0.90;;;0.90;;
9536;SDS011;4807;48.024;11.726;2023-07-02T09:35:35;0.90;;;0.90;;
9536;SDS011;4807;48.024;11.726;2023-07-02T09:38:44;1.13;;;1.00;;
9536;SDS011;4807;48.024;11.726;2023-07-02T09:41:54;2.20;;;0.70;;
9536;SDS011;4807;48.024;11.726;2023-07-02T09:45:04;1.43;;;0.60;;
9536;SDS011;4807;48.024;11.726;2023-07-02T09:48:22;0.60;;;0.60;;
9536;SDS011;4807;48.024;11.726;2023-07-02T09:51:33;0.63;;;0.50;;
9536;SDS011;4807;48.024;11.726;2023-07-02T09:54:45;0.87;;;0.87;;
9536;SDS011;4807;48.024;11.726;2023-07-02T09:57:55;1.13;;;0.90;;
9536;SDS011;4807;48.024;11.726;2023-07-02T10:01:05;0.50;;;0.50;;
9536;SDS011;4807;48.024;11.726;2023-07-02T10:04:17;2.40;;;0.60;;
9536;SDS011;4807;48.024;11.726;2023-07-02T10:07:34;1.07;;;0.90;;
9536;SDS011;4807;48.024;11.726;2023-07-02T10:10:42;2.13;;;1.27;;
9536;SDS011;4807;48.024;11.726;2023-07-02T10:14:01;2.70;;;1.77;;
9536;SDS011;4807;48.024;11.726;2023-07-02T10:17:10;2.63;;;2.07;;
9536;SDS011;4807;48.024;11.726;2023-07-02T10:20:35;3.13;;;2.83;;
9536;SDS011;4807;48.024;11.726;2023-07-02T10:23:45;3.20;;;2.80;;
9536;SDS011;4807;48.024;11.726;2023-07-02T10:26:54;2.83;;;2.40;;
9536;SDS011;4807;48.024;11.726;2023-07-02T10:30:04;5.10;;;3.00;;
9536;SDS011;4807;48.024;11.726;2023-07-02T10:33:14;5.87;;;3.20;;
9536;SDS011;4807;48.024;11.726;2023-07-02T10:36:25;5.90;;;3.37;;
9536;SDS011;4807;48.024;11.726;2023-07-02T10:39:38;3.53;;;2.90;;
9536;SDS011;4807;48.024;11.726;2023-07-02T10:42:47;4.87;;;3.10;;
9536;SDS011;4807;48.024;11.726;2023-07-02T10:45:57;4.77;;;3.97;;
9536;SDS011;4807;48.024;11.726;2023-07-02T10:49:09;4.53;;;3.97;;
9536;SDS011;4807;48.024;11.726;2023-07-02T10:52:19;6.47;;;4.40;;
9536;SDS011;4807;48.024;11.726;2023-07-02T10:55:28;5.07;;;3.80;;
9536;SDS011;4807;48.024;11.726;2023-07-02T10:58:41;6.03;;;3.47;;
9536;SDS011;4807;48.024;11.726;2023-07-02T11:01:51;7.10;;;3.67;;
9536;SDS011;4807;48.024;11.726;2023-07-02T11:05:02;6.17;;;4.43;;
9536;SDS011;4807;48.024;11.726;2023-07-02T11:08:14;7.60;;;4.57;;
9536;SDS011;4807;48.024;11.726;2023-07-02T11:11:23;4.30;;;3.90;;
9536;SDS011;4807;48.024;11.726;2023-07-02T11:14:33;6.30;;;4.03;;
9536;SDS011;4807;48.024;11.726;2023-07-02T11:17:43;7.30;;;4.53;;
9536;SDS011;4807;48.024;11.726;2023-07-02T11:20:51;5.83;;;4.70;;
9536;SDS011;4807;48.024;11.726;2023-07-02T11:24:05;6.70;;;4.43;;
9536;SDS011;4807;48.024;11.726;2023-07-02T11:27:20;6.47;;;4.90;;
9536;SDS011;4807;48.024;11.726;2023-07-02T11:30:29;5.47;;;4.73;;
9536;SDS011;4807;48.024;11.726;2023-07-02T11:33:39;6.87;;;5.33;;
9536;SDS011;4807;48.024;11.726;2023-07-02T11:36:48;6.23;;;5.10;;
9536;SDS011;4807;48.024;11.726;2023-07-02T11:40:01;6.87;;;5.17;;
9536;SDS011;4807;48.024;11.726;2023-07-02T11:43:10;6.57;;;5.03;;
9536;SDS011;4807;48.024;11.726;2023-07-02T11:46:19;5.87;;;5.20;;
9536;SDS011;4807;48.024;11.726;2023-07-02T11:49:28;7.90;;;4.97;;
9536;SDS011;4807;48.024;11.726;2023-07-02T11:52:36;6.03;;;5.20;;
9536;SDS011;4807;48.024;11.726;2023-07-02T11:55:46;7.50;;;5.43;;
9536;SDS011;4807;48.024;11.726;2023-07-02T11:58:56;8.00;;;6.70;;
9536;SDS011;4807;48.024;11.726;2023-07-02T12:02:15;7.63;;;6.43;;
9536;SDS011;4807;48.024;11.726;2023-07-02T12:05:44;9.87;;;6.70;;
9536;SDS011;4807;48.024;11.726;2023-07-02T12:09:50;10.23;;;8.03;;
9536;SDS011;4807;48.024;11.726;2023-07-02T12:13:01;12.13;;;7.93;;
9536;SDS011;4807;48.024;11.726;2023-07-02T12:16:11;11.67;;;8.37;;
9536;SDS011;4807;48.024;11.726;2023-07-02T12:19:19;9.43;;;8.27;;
9536;SDS011;4807;48.024;11.726;2023-07-02T12:22:28;11.77;;;7.73;;
9536;SDS011;4807;48.024;11.726;2023-07-02T12:25:37;12.73;;;8.50;;
9536;SDS011;4807;48.024;11.726;2023-07-02T12:28:48;9.87;;;8.00;;
9536;SDS011;4807;48.024;11.726;2023-07-02T12:31:57;9.70;;;7.60;;
9536;SDS011;4807;48.024;11.726;2023-07-02T12:35:06;13.23;;;8.53;;
9536;SDS011;4807;48.024;11.726;2023-07-02T12:38:16;11.90;;;8.60;;
9536;SDS011;4807;48.024;11.726;2023-07-02T12:41:25;10.87;;;8.93;;
9536;SDS011;4807;48.024;11.726;2023-07-02T12:44:37;10.50;;;8.57;;
9536;SDS011;4807;48.024;11.726;2023-07-02T12:47:46;11.23;;;8.20;;
9536;SDS011;4807;48.024;11.726;2023-07-02T12:50:56;12.27;;;8.43;;
9536;SDS011;4807;48.024;11.726;2023-07-02T12:54:06;12.10;;;8.23;;
9536;SDS011;4807;48.024;11.726;2023-07-02T12:57:16;8.67;;;7.77;;
9536;SDS011;4807;48.024;11.726;2023-07-02T13:00:27;9.63;;;7.87;;
9536;SDS011;4807;48.024;11.726;2023-07-02T13:03:36;10.17;;;6.97;;
9536;SDS011;4807;48.024;11.726;2023-07-02T13:06:45;9.93;;;7.40;;
9536;SDS011;4807;48.024;11.726;2023-07-02T13:09:53;10.90;;;7.40;;
9536;SDS011;4807;48.024;11.726;2023-07-02T13:13:02;9.13;;;6.87;;
9536;SDS011;4807;48.024;11.726;2023-07-02T13:16:29;8.93;;;6.70;;
9536;SDS011;4807;48.024;11.726;2023-07-02T13:19:38;9.40;;;7.27;;
9536;SDS011;4807;48.024;11.726;2023-07-02T13:22:47;8.13;;;6.67;;
9536;SDS011;4807;48.024;11.726;2023-07-02T13:25:55;8.00;;;6.60;;
9536;SDS011;4807;48.024;11.726;2023-07-02T13:29:04;9.13;;;6.60;;
9536;SDS011;4807;48.024;11.726;2023-07-02T13:32:14;9.83;;;6.70;;
9536;SDS011;4807;48.024;11.726;2023-07-02T13:35:23;7.97;;;6.93;;
9536;SDS011;4807;48.024;11.726;2023-07-02T13:38:31;8.87;;;7.07;;
9536;SDS011;4807;48.024;11.726;2023-07-02T13:41:40;8.93;;;7.00;;
9536;SDS011;4807;48.024;11.726;2023-07-02T13:44:49;8.23;;;6.73;;
9536;SDS011;4807;48.024;11.726;2023-07-02T13:47:59;8.70;;;6.33;;
9536;SDS011;4807;48.024;11.726;2023-07-02T13:51:08;8.63;;;7.27;;
9536;SDS011;4807;48.024;11.726;2023-07-02T13:54:17;8.20;;;6.80;;
9536;SDS011;4807;48.024;11.726;2023-07-02T13:57:26;9.40;;;7.30;;
9536;SDS011;4807;48.024;11.726;2023-07-02T14:00:36;9.50;;;7.17;;
9536;SDS011;4807;48.024;11.726;2023-07-02T14:03:44;10.93;;;7.70;;
9536;SDS011;4807;48.024;11.726;2023-07-02T14:06:53;10.53;;;7.87;;
9536;SDS011;4807;48.024;11.726;2023-07-02T14:10:02;9.57;;;7.07;;
9536;SDS011;4807;48.024;11.726;2023-07-02T14:13:11;10.13;;;7.73;;
9536;SDS011;4807;48.024;11.726;2023-07-02T14:16:22;8.87;;;7.63;;
9536;SDS011;4807;48.024;11.726;2023-07-02T14:19:31;12.13;;;8.77;;
9536;SDS011;4807;48.024;11.726;2023-07-02T14:22:40;11.20;;;7.90;;
9536;SDS011;4807;48.024;11.726;2023-07-02T14:25:52;10.63;;;7.40;;
9536;SDS011;4807;48.024;11.726;2023-07-02T14:29:01;10.40;;;8.33;;
9536;SDS011;4807;48.024;11.726;2023-07-02T14:32:11;10.03;;;7.50;;
9536;SDS011;4807;48.024;11.726;2023-07-02T14:35:20;10.80;;;8.07;;
9536;SDS011;4807;48.024;11.726;2023-07-02T14:38:34;10.77;;;8.67;;
9536;SDS011;4807;48.024;11.726;2023-07-02T14:41:44;11.37;;;8.00;;
9536;SDS011;4807;48.024;11.726;2023-07-02T14:44:54;11.83;;;8.37;;
9536;SDS011;4807;48.024;11.726;2023-07-02T14:48:04;15.03;;;8.47;;
9536;SDS011;4807;48.024;11.726;2023-07-02T14:51:13;10.53;;;8.53;;
9536;SDS011;4807;48.024;11.726;2023-07-02T14:54:22;10.63;;;8.23;;
9536;SDS011;4807;48.024;11.726;2023-07-02T14:57:30;11.17;;;8.60;;
9536;SDS011;4807;48.024;11.726;2023-07-02T15:00:43;13.43;;;8.60;;
9536;SDS011;4807;48.024;11.726;2023-07-02T15:03:54;12.30;;;8.77;;
9536;SDS011;4807;48.024;11.726;2023-07-02T15:07:03;10.97;;;9.50;;
9536;SDS011;4807;48.024;11.726;2023-07-02T15:10:13;11.87;;;8.23;;
9536;SDS011;4807;48.024;11.726;2023-07-02T15:13:22;11.80;;;9.20;;
9536;SDS011;4807;48.024;11.726;2023-07-02T15:16:31;11.07;;;8.87;;
9536;SDS011;4807;48.024;11.726;2023-07-02T15:19:42;9.87;;;8.53;;
9536;SDS011;4807;48.024;11.726;2023-07-02T15:22:51;12.13;;;8.30;;
9536;SDS011;4807;48.024;11.726;2023-07-02T15:26:00;11.70;;;7.83;;
9536;SDS011;4807;48.024;11.726;2023-07-02T15:29:10;9.00;;;6.90;;
9536;SDS011;4807;48.024;11.726;2023-07-02T15:32:19;10.00;;;7.23;;
9536;SDS011;4807;48.024;11.726;2023-07-02T15:35:30;10.03;;;7.37;;
9536;SDS011;4807;48.024;11.726;2023-07-02T15:38:39;11.93;;;8.43;;
9536;SDS011;4807;48.024;11.726;2023-07-02T15:41:48;20.37;;;11.40;;
9536;SDS011;4807;48.024;11.726;2023-07-02T15:44:59;10.13;;;7.63;;
9536;SDS011;4807;48.024;11.726;2023-07-02T15:48:09;9.13;;;7.20;;
9536;SDS011;4807;48.024;11.726;2023-07-02T15:51:19;9.20;;;7.20;;
9536;SDS011;4807;48.024;11.726;2023-07-02T15:54:29;10.77;;;8.13;;
9536;SDS011;4807;48.024;11.726;2023-07-02T15:57:38;9.37;;;7.13;;
9536;SDS011;4807;48.024;11.726;2023-07-02T16:00:47;8.20;;;7.00;;
9536;SDS011;4807;48.024;11.726;2023-07-02T16:03:56;10.37;;;7.20;;
9536;SDS011;4807;48.024;11.726;2023-07-02T16:07:08;9.93;;;7.40;;
9536;SDS011;4807;48.024;11.726;2023-07-02T16:10:17;9.27;;;6.87;;
9536;SDS011;4807;48.024;11.726;2023-07-02T16:13:26;7.80;;;6.47;;
9536;SDS011;4807;48.024;11.726;2023-07-02T16:16:36;8.03;;;5.40;;
9536;SDS011;4807;48.024;11.726;2023-07-02T16:19:46;6.33;;;5.37;;
9536;SDS011;4807;48.024;11.726;2023-07-02T16:22:57;9.30;;;5.97;;
9536;SDS011;4807;48.024;11.726;2023-07-02T16:26:07;9.70;;;5.73;;
9536;SDS011;4807;48.024;11.726;2023-07-02T16:29:16;7.53;;;5.43;;
9536;SDS011;4807;48.024;11.726;2023-07-02T16:32:26;7.47;;;5.33;;
9536;SDS011;4807;48.024;11.726;2023-07-02T16:35:35;8.90;;;5.63;;
9536;SDS011;4807;48.024;11.726;2023-07-02T16:38:45;6.43;;;5.30;;
9536;SDS011;4807;48.024;11.726;2023-07-02T16:41:55;6.50;;;5.73;;
9536;SDS011;4807;48.024;11.726;2023-07-02T16:45:04;10.47;;;6.07;;
9536;SDS011;4807;48.024;11.726;2023-07-02T16:48:14;6.00;;;5.40;;
9536;SDS011;4807;48.024;11.726;2023-07-02T16:51:23;8.37;;;5.03;;
9536;SDS011;4807;48.024;11.726;2023-07-02T16:54:33;6.33;;;5.10;;
9536;SDS011;4807;48.024;11.726;2023-07-02T16:57:42;6.77;;;5.53;;
9536;SDS011;4807;48.024;11.726;2023-07-02T17:00:51;7.27;;;5.07;;
9536;SDS011;4807;48.024;11.726;2023-07-02T17:04:06;5.67;;;4.93;;
9536;SDS011;4807;48.024;11.726;2023-07-02T17:07:15;6.40;;;4.77;;
9536;SDS011;4807;48.024;11.726;2023-07-02T17:10:25;7.27;;;4.67;;
9536;SDS011;4807;48.024;11.726;2023-07-02T17:13:34;5.43;;;4.93;;
9536;SDS011;4807;48.024;11.726;2023-07-02T17:16:44;5.10;;;4.60;;
9536;SDS011;4807;48.024;11.726;2023-07-02T17:19:57;4.80;;;4.27;;
9536;SDS011;4807;48.024;11.726;2023-07-02T17:23:06;5.57;;;4.97;;
9536;SDS011;4807;48.024;11.726;2023-07-02T17:26:16;5.23;;;4.60;;
9536;SDS011;4807;48.024;11.726;2023-07-02T17:29:25;5.57;;;4.43;;
9536;SDS011;4807;48.024;11.726;2023-07-02T17:32:37;6.43;;;5.20;;
9536;SDS011;4807;48.024;11.726;2023-07-02T17:35:46;5.37;;;4.87;;
9536;SDS011;4807;48.024;11.726;2023-07-02T17:38:55;6.87;;;4.87;;
9536;SDS011;4807;48.024;11.726;2023-07-02T17:42:06;5.80;;;4.60;;
9536;SDS011;4807;48.024;11.726;2023-07-02T17:45:16;5.43;;;4.83;;
9536;SDS011;4807;48.024;11.726;2023-07-02T17:48:25;5.13;;;4.43;;
9536;SDS011;4807;48.024;11.726;2023-07-02T17:51:34;4.80;;;4.30;;
9536;SDS011;4807;48.024;11.726;2023-07-02T17:54:45;5.50;;;4.67;;
9536;SDS011;4807;48.024;11.726;2023-07-02T17:57:57;7.20;;;5.50;;
9536;SDS011;4807;48.024;11.726;2023-07-02T18:01:06;5.50;;;4.67;;
9536;SDS011;4807;48.024;11.726;2023-07-02T18:04:15;5.10;;;4.60;;
9536;SDS011;4807;48.024;11.726;2023-07-02T18:07:24;5.40;;;4.33;;
9536;SDS011;4807;48.024;11.726;2023-07-02T18:10:33;4.67;;;4.20;;
9536;SDS011;4807;48.024;11.726;2023-07-02T18:13:44;5.90;;;4.70;;
9536;SDS011;4807;48.024;11.726;2023-07-02T18:16:53;7.53;;;4.27;;
9536;SDS011;4807;48.024;11.726;2023-07-02T18:20:04;6.60;;;4.73;;
9536;SDS011;4807;48.024;11.726;2023-07-02T18:23:14;5.40;;;4.17;;
9536;SDS011;4807;48.024;11.726;2023-07-02T18:26:22;6.17;;;4.57;;
9536;SDS011;4807;48.024;11.726;2023-07-02T18:29:35;6.33;;;4.37;;
9536;SDS011;4807;48.024;11.726;2023-07-02T18:32:44;5.83;;;4.83;;
9536;SDS011;4807;48.024;11.726;2023-07-02T18:35:53;5.50;;;4.47;;
9536;SDS011;4807;48.024;11.726;2023-07-02T18:39:02;6.93;;;4.73;;
9536;SDS011;4807;48.024;11.726;2023-07-02T18:42:11;5.10;;;4.27;;
9536;SDS011;4807;48.024;11.726;2023-07-02T18:45:22;5.73;;;4.90;;
9536;SDS011;4807;48.024;11.726;2023-07-02T18:48:33;4.50;;;4.07;;
9536;SDS011;4807;48.024;11.726;2023-07-02T18:51:42;5.13;;;4.60;;
9536;SDS011;4807;48.024;11.726;2023-07-02T18:54:51;6.33;;;4.63;;
9536;SDS011;4807;48.024;11.726;2023-07-02T18:58:00;7.27;;;4.67;;
9536;SDS011;4807;48.024;11.726;2023-07-02T19:01:11;7.50;;;4.50;;
9536;SDS011;4807;48.024;11.726;2023-07-02T19:04:22;6.40;;;5.07;;
9536;SDS011;4807;48.024;11.726;2023-07-02T19:07:31;6.10;;;4.90;;
9536;SDS011;4807;48.024;11.726;2023-07-02T19:10:41;5.77;;;5.17;;
9536;SDS011;4807;48.024;11.726;2023-07-02T19:13:51;7.03;;;5.50;;
9536;SDS011;4807;48.024;11.726;2023-07-02T19:17:01;6.40;;;5.20;;
9536;SDS011;4807;48.024;11.726;2023-07-02T19:20:12;5.50;;;4.57;;